.
WxDataArchive / Data Records for 2016-02-29
2016-02-28 February 2016 2016-03-01

Data Records for Monday, 29 February 2016

Time	Temp	Chill	HIndex	Humid	Dewpt	 Wind 	HiWind	WindDir	Rain 	Barom
-----	----	-----	------	-----	-----	------	------	-------	-----	-----
00:00	43.5	39.9	43.5	79	37.4	6	13	292	0.00	29.559 
00:05	42.6	37.8	42.6	78	36.2	8	16	315	0.00	29.559 
00:10	42.2	39.1	42.2	79	36.2	5	10	292	0.00	29.559 
00:15	41.8	38.6	41.8	79	35.8	5	12	315	0.00	29.562 
00:20	41.5	39.1	41.5	79	35.5	4	10	315	0.00	29.562 
00:25	41.2	38.7	41.2	80	35.5	4	12	292	0.00	29.562 
00:30	40.9	38.4	40.9	81	35.5	4	9	292	0.00	29.581 
00:35	40.6	38.0	40.6	81	35.2	4	11	292	0.00	29.581 
00:40	40.5	37.9	40.5	84	36.1	4	9	292	0.00	29.581 
00:45	40.1	40.1	40.1	82	35.1	3	10	292	0.00	29.594 
00:50	39.5	35.9	39.5	81	34.2	5	14	292	0.00	29.594 
00:55	39.1	35.4	39.1	81	33.8	5	11	292	0.00	29.594 
01:00	38.6	33.5	38.6	80	33.0	7	12	292	0.00	29.603 
01:05	38.5	34.0	38.5	80	32.9	6	13	292	0.00	29.603 
01:10	38.3	35.4	38.3	79	32.4	4	12	292	0.00	29.603 
01:15	38.2	35.2	38.2	80	32.6	4	9	292	0.00	29.626 
01:20	37.9	34.0	37.9	79	32.0	5	12	292	0.00	29.626 
01:25	37.8	37.8	37.8	79	31.9	3	7	270	0.00	29.626 
01:30	37.6	37.6	37.6	80	32.0	3	10	292	0.00	29.640 
01:35	37.6	34.5	37.6	81	32.3	4	7	270	0.00	29.640 
01:40	37.5	37.5	37.5	81	32.2	3	6	292	0.00	29.640 
01:45	37.3	33.3	37.3	80	31.7	5	17	292	0.00	29.655 
01:50	37.2	33.2	37.2	79	31.3	5	12	292	0.00	29.655 
01:55	37.0	32.9	37.0	79	31.1	5	13	292	0.00	29.655 
02:00	36.9	32.8	36.9	79	31.0	5	13	292	0.00	29.666 
02:05	36.9	33.7	36.9	80	31.3	4	9	292	0.00	29.666 
02:10	36.9	33.7	36.9	80	31.3	4	10	315	0.00	29.666 
02:15	36.6	32.5	36.6	81	31.3	5	10	292	0.00	29.682 
02:20	36.6	36.6	36.6	81	31.3	2	5	270	0.00	29.682 
02:25	36.5	33.3	36.5	82	31.5	4	12	292	0.00	29.682 
02:30	36.2	32.9	36.2	84	31.8	4	9	292	0.00	29.692 
02:35	36.0	32.7	36.0	84	31.6	4	12	292	0.00	29.692 
02:40	35.9	32.6	35.9	85	31.8	4	9	270	0.00	29.692 
02:45	35.9	35.9	35.9	86	32.1	3	6	270	0.00	29.704 
02:50	35.8	35.8	35.8	87	32.3	2	5	270	0.00	29.704 
02:55	35.6	35.6	35.6	87	32.1	2	4	292	0.00	29.704 
03:00	35.6	35.6	35.6	88	32.4	2	4	270	0.00	29.712 
03:05	35.6	35.6	35.6	88	32.4	2	4	292	0.00	29.712 
03:10	35.6	35.6	35.6	88	32.4	2	5	292	0.00	29.712 
03:15	35.6	35.6	35.6	89	32.7	2	5	270	0.00	29.723 
03:20	35.8	35.8	35.8	89	32.9	1	3	270	0.00	29.723 
03:25	35.8	35.8	35.8	89	32.9	2	4	270	0.00	29.723 
03:30	35.8	35.8	35.8	89	32.9	1	3	270	0.00	29.731 
03:35	35.6	35.6	35.6	89	32.7	2	4	270	0.00	29.731 
03:40	35.6	35.6	35.6	89	32.7	2	5	270	0.00	29.731 
03:45	35.6	35.6	35.6	89	32.7	2	4	292	0.00	29.737 
03:50	35.6	35.6	35.6	89	32.7	1	3	292	0.00	29.737 
03:55	35.8	35.8	35.8	90	33.2	1	3	292	0.00	29.737 
04:00	35.8	35.8	35.8	90	33.2	2	4	248	0.00	29.737 
04:05	35.8	35.8	35.8	90	33.2	1	5	270	0.00	29.737 
04:10	35.8	35.8	35.8	90	33.2	2	4	315	0.00	29.737 
04:15	35.8	35.8	35.8	89	32.9	2	5	270	0.00	29.747 
04:20	35.6	35.6	35.6	89	32.7	2	5	270	0.00	29.747 
04:25	35.5	35.5	35.5	89	32.6	1	4	270	0.01	29.747 
04:30	35.0	35.0	35.0	89	32.1	3	7	315	0.00	29.757 
04:35	34.9	34.9	34.9	89	32.0	3	7	270	0.00	29.757 
04:40	34.7	34.7	34.7	89	31.8	3	5	270	0.00	29.757 
04:45	34.9	34.9	34.9	89	32.0	3	6	270	0.00	29.776 
04:50	34.9	34.9	34.9	89	32.0	1	4	270	0.00	29.776 
04:55	34.9	34.9	34.9	89	32.0	1	3	315	0.00	29.776 
05:00	34.9	34.9	34.9	89	32.0	2	5	292	0.00	29.788 
05:05	34.7	34.7	34.7	89	31.8	2	5	248	0.00	29.788 
05:10	34.7	34.7	34.7	89	31.8	3	5	315	0.00	29.788 
05:15	34.6	34.6	34.6	89	31.7	3	6	270	0.00	29.802 
05:20	34.6	34.6	34.6	89	31.7	2	5	292	0.00	29.802 
05:25	34.6	34.6	34.6	89	31.7	1	4	292	0.00	29.802 
05:30	34.4	34.4	34.4	89	31.5	2	5	270	0.00	29.808 
05:35	34.4	34.4	34.4	89	31.5	2	4	270	0.00	29.808 
05:40	34.4	34.4	34.4	88	31.2	1	3	270	0.00	29.808 
05:45	34.4	34.4	34.4	88	31.2	1	4	270	0.00	29.819 
05:50	34.4	34.4	34.4	87	30.9	1	5	292	0.00	29.819 
05:55	34.6	34.6	34.6	86	30.9	2	5	248	0.00	29.819 
06:00	34.7	34.7	34.7	85	30.7	1	3	270	0.00	29.822 
06:05	34.7	34.7	34.7	85	30.7	0	3	270	0.00	29.822 
06:10	34.7	34.7	34.7	85	30.7	1	3	270	0.00	29.822 
06:15	34.7	34.7	34.7	85	30.7	0	3	270	0.00	29.821 
06:20	34.9	34.9	34.9	84	30.6	1	3	270	0.00	29.821 
06:25	34.9	34.9	34.9	84	30.6	1	4	270	0.00	29.821 
06:30	34.9	34.9	34.9	83	30.3	2	4	270	0.00	29.827 
06:35	35.0	35.0	35.0	82	30.1	1	4	270	0.00	29.827 
06:40	35.0	35.0	35.0	81	29.8	2	4	270	0.00	29.827 
06:45	34.9	34.9	34.9	80	29.4	3	6	270	0.00	29.840 
06:50	34.9	31.4	34.9	78	28.7	4	7	270	0.00	29.840 
06:55	34.9	31.4	34.9	77	28.4	4	8	270	0.00	29.840 
07:00	34.9	34.9	34.9	76	28.1	3	5	270	0.00	29.843 
07:05	34.9	34.9	34.9	76	28.1	2	4	270	0.00	29.843 
07:10	34.7	34.7	34.7	76	27.9	2	5	270	0.00	29.843 
07:15	34.7	34.7	34.7	76	27.9	1	3	270	0.00	29.850 
07:20	34.7	34.7	34.7	76	27.9	2	4	270	0.00	29.850 
07:25	34.7	34.7	34.7	76	27.9	2	5	270	0.00	29.850 
07:30	34.7	34.7	34.7	76	27.9	1	3	270	0.00	29.854 
07:35	34.7	34.7	34.7	76	27.9	0	2	270	0.00	29.854 
07:40	34.7	34.7	34.7	77	28.2	1	2	270	0.00	29.854 
07:45	34.7	34.7	34.7	77	28.2	0	2	270	0.00	29.865 
07:50	34.9	34.9	34.9	77	28.4	0	2	270	0.00	29.865 
07:55	34.9	34.9	34.9	77	28.4	1	3	270	0.00	29.865 
08:00	34.9	34.9	34.9	77	28.4	1	2	270	0.00	29.873 
08:05	35.0	35.0	35.0	77	28.5	0	2	270	0.00	29.873 
08:10	35.0	35.0	35.0	76	28.2	0	3	270	0.00	29.873 
08:15	35.2	35.2	35.2	77	28.7	0	2	270	0.00	29.882 
08:20	35.3	35.3	35.3	76	28.5	1	4	270	0.00	29.882 
08:25	35.5	35.5	35.5	76	28.7	1	4	270	0.00	29.882 
08:30	35.5	35.5	35.5	76	28.7	1	4	270	0.00	29.883 
08:35	35.6	35.6	35.6	76	28.8	0	3	270	0.00	29.883 
08:40	35.8	35.8	35.8	75	28.7	2	5	315	0.00	29.883 
08:45	35.9	35.9	35.9	75	28.8	1	3	292	0.00	29.887 
08:50	36.0	36.0	36.0	75	28.9	1	4	270	0.00	29.887 
08:55	36.2	36.2	36.2	76	29.4	1	3	270	0.00	29.887 
09:00	36.2	36.2	36.2	76	29.4	1	4	270	0.00	29.893 
09:05	36.2	36.2	36.2	76	29.4	2	7	248	0.00	29.893 
09:10	36.2	36.2	36.2	77	29.7	1	5	248	0.00	29.893 
09:15	36.2	36.2	36.2	76	29.4	3	5	270	0.00	29.904 
09:20	36.2	36.2	36.2	74	28.7	3	6	248	0.00	29.904 
09:25	36.0	36.0	36.0	73	28.2	3	7	270	0.00	29.904 
09:30	35.9	35.9	35.9	73	28.1	2	5	248	0.00	29.905 
09:35	36.2	36.2	36.2	74	28.7	3	6	248	0.00	29.905 
09:40	36.3	36.3	36.3	73	28.5	2	4	270	0.00	29.905 
09:45	36.3	36.3	36.3	74	28.8	2	6	248	0.00	29.901 
09:50	36.5	36.5	36.5	73	28.7	2	6	248	0.00	29.901 
09:55	36.6	36.6	36.6	73	28.8	2	9	248	0.00	29.901 
10:00	36.8	36.8	36.8	74	29.3	1	4	248	0.00	29.889 
10:05	37.0	37.0	37.0	73	29.2	2	4	248	0.00	29.889 
10:10	37.0	37.0	37.0	73	29.2	1	4	248	0.00	29.889 
10:15	36.9	36.9	36.9	72	28.7	3	8	248	0.00	29.907 
10:20	37.0	37.0	37.0	73	29.2	2	5	248	0.00	29.907 
10:25	37.2	37.2	37.2	73	29.4	1	5	270	0.00	29.907 
10:30	37.6	37.6	37.6	73	29.7	2	5	248	0.00	29.916 
10:35	37.6	37.6	37.6	72	29.4	2	5	248	0.00	29.916 
10:40	37.6	37.6	37.6	72	29.4	3	11	248	0.00	29.916 
10:45	37.9	37.9	37.9	71	29.4	3	7	248	0.00	29.904 
10:50	37.8	37.8	37.8	71	29.3	3	9	248	0.00	29.904 
10:55	37.9	37.9	37.9	72	29.7	2	7	248	0.00	29.904 
11:00	38.8	38.8	38.8	71	30.2	2	10	248	0.00	29.890 
11:05	39.1	39.1	39.1	70	30.2	3	7	248	0.00	29.890 
11:10	39.3	39.3	39.3	69	30.0	3	9	248	0.00	29.890 
11:15	39.9	39.9	39.9	71	31.3	2	7	248	0.00	29.907 
11:20	40.6	40.6	40.6	70	31.6	2	5	248	0.00	29.907 
11:25	41.1	41.1	41.1	67	31.0	2	10	248	0.00	29.907 
11:30	40.9	40.9	40.9	67	30.8	3	7	248	0.00	29.909 
11:35	40.8	40.8	40.8	67	30.7	3	7	248	0.00	29.909 
11:40	41.2	41.2	41.2	68	31.5	1	5	248	0.00	29.909 
11:45	41.8	41.8	41.8	68	32.0	2	6	248	0.00	29.897 
11:50	41.9	41.9	41.9	66	31.4	3	7	248	0.00	29.897 
11:55	42.1	42.1	42.1	66	31.6	3	5	248	0.00	29.897 
12:00	42.3	42.3	42.3	65	31.4	3	6	248	0.00	29.910 
12:05	42.6	42.6	42.6	66	32.0	3	7	248	0.00	29.910 
12:10	42.9	42.9	42.9	65	32.0	3	6	248	0.00	29.910 
12:15	43.1	43.1	43.1	65	32.1	2	5	248	0.00	29.918 
12:20	43.6	43.6	43.6	65	32.6	2	5	248	0.00	29.918 
12:25	43.9	43.9	43.9	65	32.9	1	5	248	0.00	29.918 
12:30	43.9	43.9	43.9	62	31.7	3	6	248	0.00	29.915 
12:35	44.1	44.1	44.1	63	32.3	3	7	248	0.00	29.915 
12:40	44.2	44.2	44.2	62	32.0	3	10	248	0.00	29.915 
12:45	44.6	44.6	44.6	62	32.4	1	4	248	0.00	29.893 
12:50	44.9	44.9	44.9	59	31.5	3	11	248	0.00	29.893 
12:55	45.1	45.1	45.1	59	31.6	3	7	248	0.00	29.893 
13:00	45.2	45.2	45.2	58	31.3	3	10	248	0.00	29.895 
13:05	45.4	45.4	45.4	59	31.9	3	11	248	0.00	29.895 
13:10	45.8	45.8	45.8	58	31.9	2	5	248	0.00	29.895 
13:15	46.1	46.1	46.1	58	32.2	3	7	225	0.00	29.892 
13:20	46.4	46.4	46.4	57	32.0	2	6	248	0.00	29.892 
13:25	47.0	47.0	47.0	57	32.6	1	5	248	0.00	29.892 
13:30	47.3	47.3	47.3	55	32.0	2	7	248	0.00	29.881 
13:35	47.3	47.3	47.3	54	31.5	3	7	248	0.00	29.881 
13:40	47.6	47.6	47.6	53	31.3	3	7	248	0.00	29.881 
13:45	48.2	48.2	48.2	54	32.3	1	7	248	0.00	29.879 
13:50	48.5	48.5	48.5	54	32.6	2	7	248	0.00	29.879 
13:55	48.6	48.6	48.6	52	31.8	2	7	248	0.00	29.879 
14:00	48.6	48.6	48.6	52	31.8	3	7	248	0.00	29.876 
14:05	48.8	48.8	48.8	54	32.9	2	5	248	0.00	29.876 
14:10	49.2	49.2	49.2	54	33.3	2	5	248	0.00	29.876 
14:15	49.5	49.5	49.5	52	32.6	2	6	248	0.00	29.871 
14:20	49.8	49.8	49.8	51	32.4	2	7	248	0.00	29.871 
14:25	49.8	49.8	49.8	51	32.4	3	6	248	0.00	29.871 
14:30	49.6	49.6	49.6	52	32.7	3	9	248	0.00	29.877 
14:35	49.8	49.8	49.8	52	32.9	2	6	248	0.00	29.877 
14:40	50.4	50.4	50.4	52	33.4	2	5	248	0.00	29.877 
14:45	50.4	50.4	50.4	50	32.5	4	9	248	0.00	29.888 
14:50	50.7	50.7	50.7	50	32.7	3	8	248	0.00	29.888 
14:55	51.0	51.0	51.0	49	32.5	2	5	270	0.00	29.888 
15:00	51.4	51.4	51.4	47	31.9	2	9	270	0.00	29.906 
15:05	51.6	51.6	51.6	47	32.0	2	5	248	0.00	29.906 
15:10	51.7	51.7	51.7	46	31.6	3	9	248	0.00	29.906 
15:15	51.7	51.7	51.7	46	31.6	3	6	248	0.00	29.902 
15:20	51.7	51.7	51.7	47	32.1	3	6	270	0.00	29.902 
15:25	51.6	51.6	51.6	48	32.6	2	6	248	0.00	29.902 
15:30	51.4	51.4	51.4	46	31.3	3	7	270	0.00	29.891 
15:35	51.1	51.1	51.1	48	32.1	3	6	270	0.00	29.891 
15:40	51.4	51.4	51.4	47	31.9	3	6	248	0.00	29.891 
15:45	51.4	51.4	51.4	46	31.3	3	11	248	0.00	29.892 
15:50	51.7	51.7	51.7	46	31.6	2	6	248	0.00	29.892 
15:55	52.0	52.0	52.0	47	32.4	2	6	248	0.00	29.892 
16:00	51.7	51.7	51.7	47	32.1	3	6	248	0.00	29.889 
16:05	51.4	51.4	51.4	47	31.9	3	7	248	0.00	29.889 
16:10	51.6	51.6	51.6	49	33.1	1	4	248	0.00	29.889 
16:15	51.7	51.7	51.7	46	31.6	2	5	270	0.00	29.892 
16:20	51.6	51.6	51.6	46	31.5	3	5	270	0.00	29.892 
16:25	51.4	51.4	51.4	47	31.9	1	5	248	0.00	29.892 
16:30	51.1	51.1	51.1	46	31.0	3	7	270	0.00	29.892 
16:35	51.1	51.1	51.1	48	32.1	1	4	248	0.00	29.892 
16:40	51.1	51.1	51.1	48	32.1	2	4	248	0.00	29.892 
16:45	51.1	51.1	51.1	47	31.6	1	4	270	0.00	29.897 
16:50	51.1	51.1	51.1	48	32.1	1	4	270	0.00	29.897 
16:55	51.1	51.1	51.1	47	31.6	2	6	270	0.00	29.897 
17:00	51.1	51.1	51.1	47	31.6	2	4	270	0.00	29.897 
17:05	51.1	51.1	51.1	48	32.1	1	4	248	0.00	29.897 
17:10	51.1	51.1	51.1	47	31.6	1	3	248	0.00	29.897 
17:15	51.1	51.1	51.1	47	31.6	1	3	248	0.00	29.894 
17:20	51.1	51.1	51.1	47	31.6	1	4	248	0.00	29.894 
17:25	51.3	51.3	51.3	48	32.3	1	4	248	0.00	29.894 
17:30	51.3	51.3	51.3	49	32.8	1	3	45	0.00	29.885 
17:35	51.4	51.4	51.4	48	32.4	0	3	45	0.00	29.885 
17:40	51.4	51.4	51.4	48	32.4	1	5	248	0.00	29.885 
17:45	51.3	51.3	51.3	49	32.8	2	5	248	0.00	29.893 
17:50	51.3	51.3	51.3	49	32.8	1	5	248	0.00	29.893 
17:55	51.1	51.1	51.1	49	32.6	2	4	248	0.00	29.893 
18:00	51.0	51.0	51.0	50	33.0	1	5	248	0.00	29.902 
18:05	50.8	50.8	50.8	50	32.8	1	3	248	0.00	29.902 
18:10	50.7	50.7	50.7	50	32.7	1	3	248	0.00	29.902 
18:15	50.5	50.5	50.5	51	33.1	0	3	248	0.00	29.910 
18:20	50.2	50.2	50.2	52	33.3	0	2	248	0.00	29.910 
18:25	49.9	49.9	49.9	52	33.0	0	3	248	0.00	29.910 
18:30	49.8	49.8	49.8	52	32.9	1	4	248	0.00	29.922 
18:35	49.8	49.8	49.8	52	32.9	1	4	248	0.00	29.922 
18:40	49.6	49.6	49.6	53	33.2	0	2	248	0.00	29.922 
18:45	49.5	49.5	49.5	53	33.1	1	4	248	0.00	29.927 
18:50	49.4	49.4	49.4	53	33.0	1	3	248	0.00	29.927 
18:55	49.2	49.2	49.2	54	33.3	0	2	248	0.00	29.927 
19:00	49.1	49.1	49.1	54	33.2	0	1	248	0.00	29.935 
19:05	48.8	48.8	48.8	54	32.9	0	1	248	0.00	29.935 
19:10	48.6	48.6	48.6	55	33.2	0	2	248	0.00	29.935 
19:15	48.6	48.6	48.6	55	33.2	0	1	248	0.00	29.942 
19:20	48.5	48.5	48.5	56	33.5	0	3	248	0.00	29.942 
19:25	48.3	48.3	48.3	57	33.8	0	2	248	0.00	29.942 
19:30	48.3	48.3	48.3	57	33.8	0	2	248	0.00	29.955 
19:35	48.2	48.2	48.2	58	34.1	0	1	248	0.00	29.955 
19:40	48.2	48.2	48.2	58	34.1	0	1	248	0.00	29.955 
19:45	48.2	48.2	48.2	58	34.1	0	1	248	0.00	29.957 
19:50	48.2	48.2	48.2	58	34.1	0	1	248	0.00	29.957 
19:55	48.0	48.0	48.0	58	33.9	0	1	248	0.00	29.957 
20:00	48.0	48.0	48.0	58	33.9	0	1	248	0.00	29.958 
20:05	47.9	47.9	47.9	59	34.3	0	1	248	0.00	29.958 
20:10	47.7	47.7	47.7	59	34.1	0	1	248	0.00	29.958 
20:15	47.6	47.6	47.6	59	34.0	0	1	248	0.00	29.952 
20:20	47.6	47.6	47.6	59	34.0	0	1	248	0.00	29.952 
20:25	47.4	47.4	47.4	60	34.2	0	1	248	0.00	29.952 
20:30	47.4	47.4	47.4	60	34.2	0	1	248	0.00	29.959 
20:35	47.4	47.4	47.4	60	34.2	0	0	---	0.00	29.959 
20:40	47.4	47.4	47.4	60	34.2	0	1	248	0.00	29.959 
20:45	47.4	47.4	47.4	61	34.6	0	1	248	0.00	29.959 
20:50	47.4	47.4	47.4	60	34.2	0	1	248	0.00	29.959 
20:55	47.6	47.6	47.6	60	34.4	0	2	248	0.00	29.959 
21:00	47.6	47.6	47.6	61	34.8	0	4	248	0.00	29.970 
21:05	47.4	47.4	47.4	62	35.0	0	1	248	0.00	29.970 
21:10	47.1	47.1	47.1	63	35.2	0	1	248	0.00	29.970 
21:15	46.8	46.8	46.8	64	35.3	0	1	248	0.00	29.973 
21:20	46.5	46.5	46.5	64	35.0	0	0	---	0.00	29.973 
21:25	46.4	46.4	46.4	65	35.3	0	0	---	0.00	29.973 
21:30	46.1	46.1	46.1	65	35.0	0	0	---	0.00	29.977 
21:35	45.8	45.8	45.8	65	34.7	0	0	---	0.00	29.977 
21:40	45.5	45.5	45.5	66	34.8	0	0	---	0.00	29.977 
21:45	45.2	45.2	45.2	67	34.9	0	1	248	0.00	29.982 
21:50	44.9	44.9	44.9	67	34.6	0	1	248	0.00	29.982 
21:55	44.9	44.9	44.9	65	33.9	0	2	248	0.00	29.982 
22:00	44.8	44.8	44.8	63	33.0	0	1	248	0.00	29.989 
22:05	44.6	44.6	44.6	61	32.0	0	1	248	0.00	29.989 
22:10	44.6	44.6	44.6	61	32.0	0	0	---	0.00	29.989 
22:15	44.5	44.5	44.5	60	31.5	0	0	---	0.00	29.988 
22:20	44.5	44.5	44.5	60	31.5	0	1	248	0.00	29.988 
22:25	44.3	44.3	44.3	60	31.3	0	1	248	0.00	29.988 
22:30	44.3	44.3	44.3	60	31.3	0	1	248	0.00	29.988 
22:35	44.2	44.2	44.2	60	31.2	0	2	248	0.00	29.988 
22:40	44.2	44.2	44.2	60	31.2	0	1	248	0.00	29.988 
22:45	44.1	44.1	44.1	60	31.1	0	1	248	0.00	29.989 
22:50	44.1	44.1	44.1	60	31.1	0	1	248	0.00	29.989 
22:55	43.9	43.9	43.9	61	31.3	0	1	248	0.00	29.989 
23:00	43.8	43.8	43.8	61	31.2	0	2	248	0.00	29.991 
23:05	43.6	43.6	43.6	62	31.5	1	4	248	0.00	29.991 
23:10	43.3	43.3	43.3	62	31.2	1	5	112	0.00	29.991 
23:15	43.2	43.2	43.2	63	31.5	0	1	112	0.00	29.990 
23:20	43.1	43.1	43.1	64	31.8	0	3	112	0.00	29.990 
23:25	42.8	42.8	42.8	65	31.9	0	3	112	0.00	29.990 
23:30	42.6	42.6	42.6	65	31.7	2	5	112	0.00	29.989 
23:35	42.3	42.3	42.3	66	31.8	3	7	112	0.00	29.989 
23:40	41.8	39.4	41.8	69	32.4	4	12	112	0.00	29.989 
23:45	40.8	37.4	40.8	72	32.5	5	12	90	0.00	29.992 
23:50	39.6	36.0	39.6	73	31.7	5	11	90	0.00	29.992 
23:55	38.8	38.8	38.8	74	31.2	3	10	112	0.00	29.992 

CoCoRaHS
IN-AL-39
A2 Web Hosting
Creative Commons License
GoDaddy
search engine by freefind advanced

loaded 2018-11-14 03:39:01 • last modified 2010-11-18 10:43:29
Privacy PolicyDisclaimer
• wx.awcolley.com is powered by PmWiki v.2002016 •
• all content (unless otherwise noted) © 2018 A W Colley